Madison Heights, Michigan
Current Conditions -  °F | °C
As of 5:55 PM on Thursday 27 Nov 2014 (Local Time) from KVLL Reporting Station
Overcast Overcast  
Wind Chill: 22°   Ceiling: 2400
Heat Index: 32°   Visibility: 10mi
Dew Point: 22°   Wind: 13mph
Humidity: 68%   Direction: 320°NW
Pressure: 30.23"   Gusts: 21mph
Location:  42.52°N, 83.11°W
Report Text: KVLL 272255Z AUTO 32011G18KT 10SM BKN024 OVC031 00/M05 A3023 RMK AO2 T10021055
Loading
Personal Weather Stations






























Interactive Weather Map New forecast layout! Learn more

10-Day Weather Forecast

Advertisements
Track Severe Weather on mobile